Date,TemperatureHighF,TemperatureAvgF,TemperatureLowF,DewpointHighF,DewpointAvgF,DewpointLowF,HumidityHigh,HumidityAvg,HumidityLow,PressureMaxIn,PressureMinIn,WindSpeedMaxMPH,WindSpeedAvgMPH,GustSpeedMaxMPH,PrecipitationSumIn
2013-1-1,35,29,16,28,18,8,79,64,48,30.21,29.96,3,1,10,0.00
2013-1-2,27,16,6,19,8,-5,84,69,58,30.41,30.19,2,0,9,0.00
2013-1-3,22,10,2,8,-1,-6,75,60,39,30.43,30.28,1,0,7,0.00
2013-1-4,37,26,13,25,19,7,92,74,60,30.28,30.07,3,0,7,0.01
2013-1-5,38,31,19,26,21,15,87,68,47,30.55,30.09,2,0,6,0.01
2013-1-6,41,30,19,30,24,15,92,81,63,30.52,30.21,2,0,5,0.03
2013-1-7,35,28,17,28,22,13,95,78,49,30.69,30.23,2,0,5,0.01
2013-1-8,44,30,20,29,25,18,97,81,53,30.65,30.53,2,0,6,0.00
2013-1-9,42,33,20,35,27,19,96,81,62,30.70,30.26,2,0,6,0.00
2013-1-10,44,39,28,31,27,24,86,63,50,30.82,30.27,5,2,12,0.01
2013-1-11,39,32,23,35,28,21,97,87,69,30.81,30.52,1,0,3,0.14
2013-1-12,41,38,36,40,37,35,98,98,97,30.52,30.42,1,0,2,0.17
2013-1-13,50,49,47,49,48,47,99,98,95,30.30,30.24,2,1,5,0.02
2013-1-14,60,50,39,52,43,29,99,80,47,30.49,30.13,2,1,8,0.01
2013-1-15,41,35,28,30,27,24,91,73,56,30.60,30.48,1,0,3,0.01
2013-1-16,33,31,28,32,29,25,97,92,78,30.54,30.10,0,0,3,0.00
2013-1-17,40,32,26,35,27,11,98,83,49,30.38,30.10,2,0,9,0.21
2013-1-18,27,19,13,13,2,-5,62,49,35,30.74,30.32,2,0,12,0.01
2013-1-19,45,34,19,31,22,7,76,60,47,30.68,30.15,4,1,13,0.04
2013-1-20,52,40,27,33,26,10,78,60,31,30.18,29.78,7,2,16,0.03
2013-1-21,27,24,19,20,10,1,92,57,40,30.37,30.09,3,1,12,0.01
2013-1-22,24,19,11,20,10,1,94,72,41,30.36,30.05,3,0,10,0.00
2013-1-23,13,8,1,1,-7,-12,68,49,32,30.43,30.35,3,0,10,0.00
2013-1-24,17,7,-1,-5,-9,-13,67,47,33,30.51,30.36,3,1,17,0.00
2013-1-25,21,14,6,1,-4,-8,59,45,30,30.59,30.37,2,1,10,0.00
2013-1-26,23,16,9,11,4,-5,88,61,32,30.51,30.30,3,1,8,0.00
2013-1-27,28,19,12,4,1,-3,68,48,26,30.76,30.50,3,1,9,0.00
2013-1-28,29,22,15,22,10,-1,93,63,34,30.76,30.33,1,0,3,0.00
2013-1-29,35,29,23,31,26,21,95,89,81,30.49,30.33,1,0,3,0.03
2013-1-30,60,44,32,57,43,31,99,96,90,30.44,29.72,3,1,15,0.15
2013-1-31,59,41,30,56,29,16,97,62,45,29.81,29.17,6,3,18,0.32
2013-2-1,32,27,21,17,11,7,64,51,38,30.34,29.81,3,2,12,0.01
2013-2-2,28,23,15,13,8,4,66,53,41,30.53,30.33,2,1,8,0.00
2013-2-3,28,24,18,22,19,12,94,83,55,30.34,30.01,1,0,3,0.00
2013-2-4,29,23,17,19,11,5,91,62,40,30.19,29.99,4,1,12,0.00
2013-2-5,29,22,15,20,11,6,83,62,47,30.32,30.19,2,0,5,0.00
2013-2-6,38,28,20,26,20,11,93,74,46,30.58,30.21,2,0,8,0.01
2013-2-7,28,21,13,12,1,-4,66,44,25,30.83,30.58,2,0,7,0.01
2013-2-8,23,19,16,17,14,3,93,84,41,30.80,29.98,3,1,12,0.00
2013-2-9,21,17,12,19,15,8,94,92,84,30.47,29.89,3,1,12,0.00
2013-2-10,37,20,6,11,6,1,84,59,26,30.68,30.47,1,0,3,0.01
2013-2-11,36,25,12,35,22,5,98,87,69,30.64,29.89,1,0,2,0.01
2013-2-12,39,35,31,32,31,29,98,87,73,30.13,29.86,2,0,3,0.21
2013-2-13,42,33,25,29,25,22,91,74,51,30.14,30.00,2,0,8,0.05
2013-2-14,43,33,26,26,24,21,91,71,47,30.27,29.98,2,0,6,0.01
2013-2-15,51,37,23,35,30,21,94,78,51,30.27,30.16,4,0,13,0.01
2013-2-16,40,34,28,33,28,19,96,78,60,30.23,30.01,2,0,6,0.01
2013-2-17,30,22,16,19,12,3,92,68,48,30.01,29.64,5,2,20,0.01
2013-2-18,31,21,13,5,2,-1,62,45,27,30.42,29.93,6,2,22,0.00
2013-2-19,45,33,20,40,22,5,97,64,44,30.44,29.84,2,0,8,0.31
2013-2-20,39,32,26,38,23,15,98,71,51,30.03,29.79,5,1,12,0.29
2013-2-21,30,26,22,17,15,11,77,63,52,30.46,30.02,3,1,13,0.01
2013-2-22,40,30,18,26,21,15,91,72,45,30.68,30.45,4,0,9,0.00
2013-2-23,38,33,29,33,30,25,96,86,76,30.63,30.23,2,0,10,0.00
2013-2-24,36,33,30,35,32,29,98,97,96,30.23,29.99,2,0,7,0.26
2013-2-25,40,33,28,33,30,27,98,91,69,30.52,30.18,1,0,3,0.20
2013-2-26,43,34,27,36,30,26,98,88,70,30.63,30.47,2,0,6,0.06
2013-2-27,40,37,31,39,36,29,98,94,80,30.47,29.85,6,2,15,1.15
2013-2-28,48,38,33,37,34,32,98,88,65,29.91,29.79,2,0,3,0.24
2013-3-1,40,36,33,34,31,29,95,86,73,29.95,29.80,2,0,5,0.00
2013-3-2,43,36,30,32,29,27,92,76,61,29.95,29.88,2,0,5,0.00
2013-3-3,40,34,30,34,30,27,91,83,73,29.92,29.83,2,0,10,0.01
2013-3-4,38,33,29,29,26,23,90,74,62,30.01,29.84,3,1,13,0.01
2013-3-5,45,35,29,35,29,23,96,78,58,30.36,30.01,2,1,7,0.01
2013-3-6,38,36,32,36,33,30,97,90,72,30.43,30.34,7,2,29,0.13
2013-3-7,34,32,30,32,29,27,96,92,85,30.40,30.30,3,1,10,0.04
2013-3-8,39,33,29,32,28,24,97,85,59,30.45,30.25,1,0,3,0.08
2013-3-9,46,35,24,32,26,20,96,71,47,30.65,30.45,2,0,6,0.34
2013-3-10,44,32,20,33,28,19,97,86,65,30.71,30.60,2,0,7,0.01
2013-3-11,52,41,32,40,35,31,95,79,49,30.61,30.42,2,0,7,0.01
2013-3-12,52,46,41,52,45,39,99,95,90,30.43,29.98,3,1,12,0.26
2013-3-13,52,43,32,52,35,24,99,74,44,30.03,29.95,2,1,15,0.27
2013-3-14,37,30,22,24,19,8,87,63,47,30.10,29.96,3,1,9,0.00
2013-3-15,41,28,18,29,14,6,83,56,29,30.14,29.90,5,1,17,0.00
2013-3-16,37,32,26,28,18,12,81,58,36,30.16,29.92,2,1,7,0.00
2013-3-17,37,28,19,18,13,6,85,56,30,30.61,30.17,4,1,12,0.00
2013-3-18,38,27,13,24,11,3,73,53,30,30.76,30.55,2,0,5,0.00
2013-3-19,33,31,27,32,30,23,97,95,68,30.55,29.92,5,1,15,0.01
2013-3-20,37,30,25,29,24,21,95,82,60,30.08,29.97,3,0,12,0.01
2013-3-21,41,30,19,27,21,16,94,73,39,30.08,29.88,2,0,6,0.13
2013-3-22,42,33,25,27,22,18,96,66,41,29.99,29.88,2,1,6,0.10
2013-3-23,42,34,26,25,22,20,80,62,42,30.03,29.89,5,2,14,0.01
2013-3-24,48,38,28,30,26,23,86,64,44,30.08,30.00,3,1,12,0.00
2013-3-25,41,35,28,35,30,25,93,83,74,30.05,29.83,5,1,12,0.00
2013-3-26,51,40,30,30,25,21,88,59,32,30.04,29.83,3,1,12,0.00
2013-3-27,54,41,28,34,28,23,83,62,38,30.14,30.00,3,1,8,0.00
2013-3-28,47,41,34,37,34,31,97,78,56,30.28,30.14,2,0,6,0.04
2013-3-29,58,44,33,39,34,30,90,69,43,30.31,30.23,2,0,6,0.01
2013-3-30,56,44,33,34,26,19,88,54,24,30.36,30.26,3,1,8,0.00
2013-3-31,60,44,25,40,26,-100,86,56,26,30.40,30.05,5,1,12,0.02
2013-4-1,59,46,34,45,38,14,98,75,39,30.05,29.75,4,1,12,0.33
2013-4-2,40,34,28,19,15,11,60,46,33,30.18,30.02,6,2,13,0.01
2013-4-3,46,36,29,18,13,7,59,40,22,30.40,30.17,5,2,12,0.00
2013-4-4,55,42,27,24,17,13,67,40,20,30.56,30.28,5,1,10,0.00
2013-4-5,61,46,37,31,28,22,72,51,24,30.28,29.88,2,1,12,0.00
2013-4-6,45,36,27,23,12,3,63,39,18,30.61,30.13,4,1,14,0.00
2013-4-7,56,40,23,39,26,12,81,57,32,30.62,30.25,5,1,15,0.00
2013-4-8,64,51,40,43,39,34,97,67,34,30.37,30.21,3,1,9,0.00
2013-4-9,68,53,44,52,44,39,94,73,46,30.35,30.11,3,1,9,0.04
2013-4-10,58,50,44,50,46,42,97,87,73,30.26,30.12,2,0,5,0.48
2013-4-11,50,46,40,46,40,30,98,82,52,30.42,30.10,2,0,3,0.46
2013-4-12,41,37,35,37,33,28,97,87,60,30.47,30.09,4,1,12,0.46
2013-4-13,52,41,34,41,37,33,98,86,60,30.20,30.06,2,0,6,0.15
2013-4-14,54,45,37,40,35,30,96,71,43,30.47,30.19,3,1,8,0.01
2013-4-15,55,43,30,39,34,28,95,72,46,30.66,30.47,4,1,12,0.00
2013-4-16,67,52,38,52,43,36,94,72,47,30.67,30.29,5,2,16,0.00
2013-4-17,66,57,43,54,38,31,85,53,28,30.58,30.29,3,1,12,0.00
2013-4-18,61,49,32,43,34,29,90,60,39,30.71,30.42,4,1,12,0.00
2013-4-19,76,64,52,64,57,43,97,80,58,30.42,29.88,5,2,18,0.00
2013-4-20,68,54,44,64,42,26,96,68,38,30.44,29.83,5,2,15,0.38
2013-4-21,54,42,31,31,25,21,85,53,29,30.95,30.45,3,1,10,0.01
2013-4-22,51,40,28,36,30,24,94,72,37,31.06,30.89,4,1,12,0.00
2013-4-23,41,39,34,40,36,30,98,92,74,30.89,30.45,3,0,9,0.07
2013-4-24,74,55,41,55,47,40,98,79,47,30.45,30.03,4,1,12,0.03
2013-4-25,64,55,42,53,38,28,95,57,28,30.53,30.06,3,1,12,0.02
2013-4-26,58,47,33,41,35,29,91,67,43,30.69,30.53,4,1,10,0.02
2013-4-27,65,50,33,42,37,32,98,66,38,30.69,30.55,3,1,8,0.00
2013-4-28,70,53,35,44,37,-100,95,61,33,30.60,30.48,4,1,12,0.00
2013-4-29,70,57,44,50,40,29,87,54,36,30.53,30.43,5,1,13,0.00
2013-4-30,71,57,41,38,32,24,78,42,23,30.62,30.50,5,1,9,0.00
2013-5-1,71,54,34,43,35,31,91,54,28,30.73,30.63,3,1,8,0.00
2013-5-2,78,52,39,49,41,36,93,69,27,30.76,30.62,6,1,13,0.00
2013-5-3,60,48,38,46,41,36,95,77,57,30.80,30.65,4,1,14,0.00
2013-5-4,60,47,36,47,39,33,98,76,42,30.65,30.57,5,1,10,0.00
2013-5-5,63,47,31,47,38,30,99,75,49,30.61,30.52,3,1,9,0.00
2013-5-6,69,50,33,53,44,32,98,81,47,30.57,30.41,3,1,8,0.00
2013-5-7,79,60,37,60,50,36,99,74,37,30.44,30.33,3,1,9,0.00
2013-5-8,74,63,50,64,58,49,98,86,65,30.46,30.31,5,1,12,0.23
2013-5-9,63,58,55,61,57,54,99,97,91,30.31,30.15,1,0,3,0.63
2013-5-10,78,62,55,63,56,-100,99,84,54,30.21,30.14,3,0,7,0.12
2013-5-11,70,63,56,64,60,55,97,90,79,30.14,29.94,3,1,12,0.17
2013-5-12,71,60,47,61,53,-100,99,80,50,30.03,29.79,3,0,7,0.18
2013-5-13,59,49,38,38,34,30,81,57,36,30.28,30.03,3,1,8,0.01
2013-5-14,60,48,36,39,34,30,91,61,34,30.32,30.22,2,0,9,0.00
2013-5-15,68,50,34,52,39,32,95,70,30,30.32,29.95,3,1,10,0.08
2013-5-16,82,61,46,54,19,-100,99,47,24,30.05,29.85,3,1,12,0.16
2013-5-17,70,57,46,47,38,-100,90,61,34,30.46,30.05,3,1,10,0.00
2013-5-18,73,56,41,51,46,40,98,73,32,30.57,30.46,3,0,7,0.00
2013-5-19,68,56,50,56,52,49,98,87,65,30.61,30.49,2,0,6,0.11
2013-5-20,81,66,53,69,61,52,99,87,60,30.49,30.15,1,0,6,0.22
2013-5-21,66,57,50,63,55,49,98,95,88,30.29,30.16,2,0,7,0.04
2013-5-22,59,53,49,57,52,48,99,96,90,30.31,30.14,2,0,3,1.32
2013-5-23,77,62,52,71,60,51,99,93,80,30.20,30.04,2,0,12,0.24
2013-5-24,72,63,50,69,61,49,99,95,86,30.07,29.89,2,0,7,0.83
2013-5-25,52,48,40,51,47,39,99,98,95,30.07,29.95,2,0,8,1.01
2013-5-26,58,47,39,47,42,38,98,84,62,30.34,29.95,3,1,12,0.15
2013-5-27,72,55,39,49,42,38,98,67,33,30.42,30.32,3,1,12,0.01
2013-5-28,72,57,40,52,45,39,98,70,33,30.50,30.41,2,0,6,0.00
2013-5-29,65,59,50,64,58,49,99,97,93,30.44,30.25,1,0,2,0.49
2013-5-30,88,72,59,73,66,59,100,82,48,30.32,30.22,2,0,9,0.22
2013-5-31,94,78,63,73,68,62,99,73,44,30.32,30.14,1,0,7,0.00
2013-6-1,94,80,67,72,67,61,91,67,35,30.18,30.08,2,0,12,0.00
2013-6-2,90,86,80,73,72,70,75,62,52,30.03,29.98,2,2,9,0.00
2013-6-3,79,69,58,70,64,51,98,84,66,30.07,29.97,2,0,7,0.38
2013-6-4,71,60,50,53,48,44,85,66,44,30.35,30.05,3,0,8,0.01
2013-6-5,76,61,47,54,49,45,96,69,38,30.44,30.34,2,0,7,0.00
2013-6-6,71,62,52,60,54,50,95,76,61,30.45,30.37,2,0,6,0.00
2013-6-7,59,54,52,55,53,51,98,96,83,30.37,30.11,2,0,8,1.65
2013-6-8,78,62,52,67,59,52,99,90,68,30.23,29.89,1,0,9,2.04
2013-6-9,78,66,54,63,58,53,99,79,50,30.40,30.23,2,0,6,0.01
2013-6-10,68,61,53,60,57,52,98,89,72,30.46,30.29,1,0,7,0.34
2013-6-11,60,57,54,59,55,53,99,97,89,30.29,29.84,3,0,12,1.68
2013-6-12,68,60,55,62,58,54,99,94,75,30.06,29.81,2,0,10,0.49
2013-6-13,67,58,51,61,56,50,100,93,67,30.06,29.97,1,0,3,0.29
2013-6-14,76,60,53,63,56,52,99,87,53,30.00,29.92,2,0,5,0.79
2013-6-15,78,65,54,57,53,47,97,70,35,30.17,30.00,2,0,8,0.01
2013-6-16,75,65,52,61,56,50,95,75,52,30.17,29.94,2,0,7,0.00
2013-6-17,85,68,58,67,61,57,98,82,48,30.14,30.00,2,0,9,0.09
2013-6-18,73,62,57,65,60,56,99,94,71,30.20,30.12,1,0,3,0.33
2013-6-19,76,63,53,60,55,50,99,79,44,30.39,30.17,2,0,5,0.03
2013-6-20,79,62,47,58,52,46,98,74,42,30.51,30.39,2,0,6,0.00
2013-6-22,85,80,72,70,66,62,76,64,55,30.43,30.33,2,0,9,0.00
2013-6-23,90,77,64,76,68,60,92,75,59,30.38,30.19,2,0,8,0.01
2013-6-24,93,80,70,77,71,68,95,78,50,30.23,30.08,2,0,8,0.01
2013-6-25,90,78,68,77,70,67,98,79,55,30.14,29.93,1,0,6,0.52
2013-6-26,83,71,62,75,69,61,99,95,74,30.10,29.94,1,0,3,1.61
2013-6-27,68,63,59,66,62,59,99,97,90,30.12,30.03,2,0,3,0.20
2013-6-28,82,67,57,76,66,57,100,94,76,30.02,29.72,3,0,9,0.60
2013-6-29,85,76,71,73,70,67,97,84,62,29.93,29.74,2,0,10,0.01
2013-6-30,86,77,67,75,71,66,99,83,64,30.15,29.93,2,0,6,0.00
2013-7-1,80,74,71,75,72,69,99,94,82,30.31,30.15,2,0,13,1.04
2013-7-2,78,68,59,75,68,58,100,97,88,30.47,30.30,2,0,6,0.05
2013-7-3,88,73,59,79,69,59,99,88,70,30.46,30.34,1,0,6,0.01
2013-7-4,92,82,72,81,75,71,98,80,57,30.42,30.29,2,0,6,0.00
2013-7-5,94,83,74,79,76,72,96,78,58,30.39,30.24,2,0,5,0.00
2013-7-6,90,81,74,78,74,71,96,80,60,30.29,30.19,1,0,6,0.00
2013-7-7,91,78,66,79,71,64,95,80,58,30.24,30.12,1,0,3,0.00
2013-7-8,80,73,64,75,70,63,98,91,78,30.32,30.13,2,0,7,0.07
2013-7-9,72,67,64,68,65,63,98,93,84,30.35,30.30,1,0,3,0.07
2013-7-10,83,71,64,78,67,-100,98,92,82,30.34,30.02,1,0,6,0.03
2013-7-11,82,75,70,77,73,70,99,95,79,30.17,29.99,1,0,5,0.44
2013-7-12,78,69,63,70,63,57,100,83,53,30.45,30.17,3,0,8,0.01
2013-7-13,81,70,62,72,65,60,97,85,68,30.56,30.45,2,0,6,0.00
2013-7-14,90,77,66,78,72,65,99,86,61,30.54,30.43,2,0,6,0.00
2013-7-15,92,78,69,78,73,68,99,86,62,30.43,30.31,1,0,3,0.00
2013-7-16,92,78,68,78,71,66,96,81,55,30.40,30.33,1,0,3,0.00
2013-7-17,93,80,67,78,72,66,99,79,54,30.41,30.17,1,0,3,0.00
2013-7-18,90,80,73,77,74,70,96,82,60,30.23,30.17,2,0,5,0.00
2013-7-19,95,83,71,80,75,70,98,79,54,30.17,29.91,2,0,8,0.00
2013-7-20,92,81,73,81,72,-100,94,77,61,30.03,29.87,2,0,5,0.15
2013-7-21,79,72,64,70,66,63,98,84,68,30.24,30.02,2,0,7,0.14
2013-7-22,81,71,66,72,68,65,98,90,72,30.27,30.14,2,0,6,0.00
2013-7-23,76,70,67,75,69,66,99,97,94,30.14,29.78,1,0,3,1.51
2013-7-24,85,75,65,75,70,56,100,86,64,30.20,29.81,2,0,8,0.01
2013-7-25,64,60,58,59,56,52,98,85,75,30.36,30.20,1,0,5,0.30
2013-7-26,70,64,59,68,64,58,99,98,92,30.33,30.17,2,0,5,0.40
2013-7-27,84,71,59,70,65,59,100,82,53,30.29,30.22,1,0,8,0.10
2013-7-28,75,69,64,71,67,63,98,93,85,30.27,30.22,1,0,5,0.00
2013-7-29,82,70,65,75,68,64,99,94,78,30.28,30.20,2,0,6,0.04
2013-7-30,81,69,59,67,63,59,99,82,52,30.33,30.27,2,0,8,0.01
2013-7-31,81,69,59,67,62,58,98,79,50,30.38,30.28,2,0,3,0.01
2013-8-1,81,68,59,68,64,58,99,87,62,30.28,30.13,2,0,6,0.01
2013-8-2,82,70,64,71,65,61,99,86,56,30.12,30.01,1,0,8,0.59
2013-8-3,80,70,62,68,64,59,96,82,58,30.10,30.00,2,0,7,0.01
2013-8-4,79,66,56,65,60,55,98,82,56,30.12,30.01,2,0,5,0.00
2013-8-5,75,61,53,56,52,45,96,75,39,30.29,30.12,2,0,9,0.00
2013-8-6,79,62,48,59,52,47,98,75,40,30.40,30.29,2,0,5,0.00
2013-8-7,80,66,52,64,58,51,99,78,52,30.44,30.35,3,0,7,0.00
2013-8-8,81,71,62,73,66,56,96,84,74,30.37,30.23,2,0,8,0.02
2013-8-9,74,72,71,74,71,70,99,96,90,30.25,29.96,2,0,8,1.58
2013-8-11,79,69,60,63,60,58,96,76,50,30.27,30.23,1,0,3,0.01
2013-8-12,81,66,56,64,60,55,99,82,49,30.27,30.15,1,0,5,0.00
2013-8-13,75,67,63,69,63,-100,98,91,77,30.16,29.93,1,0,3,0.02
2013-8-14,74,64,58,64,54,-100,99,78,53,30.18,29.90,3,0,12,0.01
2013-8-15,76,58,50,59,41,-100,98,74,48,30.35,30.18,2,0,8,0.00
2013-8-16,78,62,52,61,53,-100,98,79,50,30.42,30.35,1,0,3,0.00
2013-8-17,80,66,54,65,59,53,99,82,57,30.53,30.43,1,0,3,0.00
2013-8-18,80,66,55,68,59,-100,99,83,55,30.53,30.32,1,0,3,0.00
2013-8-19,81,66,58,69,52,-100,99,82,62,30.32,30.18,1,0,3,0.00
2013-8-20,85,71,60,70,63,-100,98,82,52,30.32,30.21,1,0,3,0.00
2013-8-21,87,73,61,73,66,60,99,83,55,30.38,30.24,1,0,6,0.00
2013-8-22,87,76,65,73,69,64,95,80,55,30.26,30.04,2,0,8,0.00
2013-8-23,81,71,58,70,63,54,95,78,48,30.37,30.04,2,0,3,0.00
2013-8-24,78,62,50,58,52,49,96,74,38,30.58,30.37,2,0,6,0.00
2013-8-25,82,64,49,63,53,-100,99,73,44,30.62,30.41,1,0,3,0.00
2013-8-26,80,71,63,70,65,58,91,80,68,30.42,30.10,2,0,6,0.00
2013-8-27,85,74,67,72,69,66,97,84,62,30.11,30.06,1,0,5,0.00
2013-8-28,84,76,65,71,67,64,95,77,60,30.23,30.10,1,0,5,0.00
2013-8-29,66,64,61,65,62,59,98,93,87,30.33,30.20,2,0,12,0.00
2013-8-30,83,69,60,71,65,59,96,85,64,30.28,30.04,1,0,3,0.00
2013-8-31,80,73,68,76,71,67,99,93,84,30.08,30.01,1,0,5,0.07
2013-9-1,85,75,70,77,70,-100,99,90,73,30.11,30.01,1,0,8,0.32
2013-9-2,76,73,71,75,73,71,99,98,96,30.10,29.95,1,0,3,0.84
2013-9-3,80,72,62,73,70,60,100,92,76,30.03,29.93,1,0,3,0.14
2013-9-4,80,67,57,66,60,56,99,82,55,30.15,30.03,1,0,6,0.01
2013-9-5,71,62,49,63,55,47,97,81,50,30.41,30.11,1,0,5,0.01
2013-9-6,69,54,42,51,46,41,98,77,42,30.50,30.34,2,0,5,0.01
2013-9-7,79,62,48,61,54,46,96,78,46,30.34,30.08,2,0,5,0.00
2013-9-8,71,62,48,63,52,-100,86,72,48,30.34,29.98,3,0,10,0.00
2013-9-9,69,56,42,53,47,41,98,74,47,30.50,30.34,1,0,7,0.00
2013-9-10,74,65,55,71,62,51,97,91,79,30.40,30.27,2,0,9,0.09
2013-9-11,93,79,69,79,73,68,100,84,57,30.30,30.15,1,0,7,0.03
2013-9-12,84,72,66,78,70,65,99,94,77,30.19,29.92,2,0,5,1.51
2013-9-13,78,66,57,70,65,56,100,97,75,30.00,29.81,2,0,5,2.31
2013-9-14,68,59,50,60,56,49,98,89,71,30.30,29.99,1,0,5,0.08
2013-9-15,69,53,46,56,49,-100,100,89,57,30.42,30.30,0,0,3,0.00
2013-9-16,65,56,45,59,52,41,97,87,75,30.52,30.25,1,0,7,0.01
2013-9-17,64,49,37,49,42,36,97,81,49,30.70,30.52,2,0,7,0.01
2013-9-18,52,43,40,47,42,39,99,98,97,30.59,30.40,0,0,0,0.00
2013-9-19,77,58,46,61,52,45,99,85,50,30.40,30.28,1,0,3,0.00
2013-9-20,55,51,47,55,50,46,100,98,97,30.34,30.29,0,0,0,0.00
2013-9-22,71,62,52,66,57,48,98,85,63,30.07,29.85,2,0,8,0.44
2013-9-23,61,51,42,49,45,40,94,80,60,30.26,30.06,2,0,12,0.01
2013-9-24,64,49,39,51,44,38,99,85,56,30.25,30.09,2,0,8,0.00
2013-9-25,64,53,42,55,49,41,99,88,63,30.25,30.14,1,0,5,0.00
2013-9-26,67,56,48,55,51,47,97,85,58,30.39,30.25,2,0,3,0.00
2013-9-27,66,57,50,57,54,49,98,88,67,30.52,30.39,1,0,3,0.00
2013-9-28,49,48,47,48,47,46,99,98,98,30.55,30.51,0,0,0,0.00
2013-9-29,61,50,44,51,47,43,97,90,70,30.41,30.40,0,0,3,0.00
2013-9-30,68,53,44,55,49,43,99,88,60,30.40,30.24,1,0,3,0.00
2013-10-1,58,56,47,57,54,46,98,96,94,30.24,30.12,0,0,0,0.00
2013-10-2,79,64,51,65,59,51,99,85,59,30.17,30.06,2,0,5,0.00
2013-10-3,77,59,51,59,55,50,99,87,43,30.33,30.18,1,0,3,0.00
2013-10-4,62,57,49,60,56,48,99,96,89,30.35,30.29,0,0,1,0.06
2013-10-5,66,59,56,60,57,55,99,92,77,30.39,30.32,1,0,3,0.01
2013-10-6,57,55,52,56,54,50,99,97,90,30.51,30.38,1,0,5,0.29
2013-10-7,77,65,55,72,63,55,100,94,74,30.42,30.04,4,1,14,0.12
2013-10-8,65,54,44,59,48,41,99,82,54,30.64,30.14,2,0,12,0.03
2013-10-9,62,48,38,50,44,37,99,87,60,30.76,30.64,1,0,6,0.00
2013-10-10,61,49,39,53,46,38,99,91,67,30.65,30.47,1,0,3,0.00
2013-10-11,72,54,45,52,48,44,99,83,39,30.47,30.37,1,0,5,0.00
2013-10-12,57,51,46,55,49,45,99,92,71,30.61,30.34,2,0,6,0.02
2013-10-13,67,52,42,48,42,-100,99,73,45,30.70,30.33,0,0,0,0.02
2013-10-14,62,51,39,52,48,38,97,90,55,30.68,30.27,0,0,1,0.12
2013-10-15,64,56,49,54,51,48,100,84,64,30.47,30.15,0,0,1,0.02
2013-10-16,64,59,52,52,49,47,98,71,53,30.45,29.85,0,0,0,0.01
2013-10-17,59,53,49,52,50,46,96,89,74,29.85,29.73,0,0,0,0.20
2013-10-18,61,56,49,46,40,34,89,54,50,29.88,29.73,0,0,0,0.52
2013-10-19,64,53,43,45,40,34,82,62,39,29.92,29.70,0,0,0,0.01
2013-10-20,55,50,47,47,34,-100,92,57,37,29.98,29.63,0,0,0,0.11
2013-10-21,62,49,34,41,37,32,92,64,42,30.07,29.89,0,0,0,0.01
2013-10-22,55,50,48,44,40,38,86,68,54,30.25,29.74,0,0,0,0.03
2013-10-23,49,40,32,39,30,27,92,70,42,30.04,29.62,0,0,1,0.01
2013-10-24,43,39,37,34,29,25,88,68,48,29.85,29.67,0,0,0,0.12
2013-10-25,42,39,37,33,26,24,86,58,48,30.14,29.85,0,0,0,0.07
2013-10-26,37,31,28,34,26,24,93,82,59,30.11,29.81,0,0,0,0.04
2013-10-27,42,39,36,36,30,-100,92,74,59,30.00,29.74,0,0,0,0.16
2013-10-28,43,39,38,35,27,-100,81,67,59,30.38,29.98,0,0,0,0.05
2013-10-29,38,26,22,21,20,17,91,79,50,30.47,30.36,0,0,0,0.02
2013-10-30,42,32,24,30,26,20,88,78,61,30.37,30.18,0,0,0,0.01
2013-10-31,44,33,29,41,31,27,92,90,82,30.22,29.97,0,0,0,0.02
2013-11-1,68,62,54,58,55,51,100,80,62,29.86,29.27,3,0,12,0.02
2013-11-2,65,54,44,47,43,39,95,69,45,29.94,29.60,1,0,3,0.22
2013-11-3,41,20,41,31,-34,-100,67,34,67,30.39,29.89,2,1,5,0.00
2013-11-4,42,31,23,22,18,14,86,59,37,30.99,30.64,2,0,8,0.00
2013-11-5,49,34,22,34,23,18,85,66,37,30.95,30.44,2,0,5,0.00
2013-11-6,61,51,32,47,37,28,85,59,45,30.54,29.89,3,0,9,0.00
2013-11-7,59,55,40,57,47,36,93,74,59,30.09,29.71,0,0,2,0.12
2013-11-8,38,36,34,35,23,20,90,60,53,30.07,29.82,0,0,0,0.03
2013-11-9,38,34,30,27,20,-100,82,57,47,30.45,29.97,0,0,1,0.01
2013-11-10,51,38,33,44,34,28,98,85,70,30.15,29.67,2,0,3,0.44
2013-11-11,51,39,33,30,28,25,80,64,42,30.29,29.81,1,0,6,0.06
2013-11-12,31,26,23,19,15,14,67,62,60,30.35,30.10,1,0,3,0.01
2013-11-13,30,25,19,19,12,8,70,58,40,30.53,30.03,0,0,1,0.00
2013-11-14,41,33,27,27,22,18,88,64,52,30.04,29.97,0,0,0,0.00
2013-11-15,58,36,27,26,23,18,88,66,22,30.38,30.04,2,0,5,0.00
2013-11-16,58,44,28,31,22,-100,89,51,26,30.59,30.23,0,0,2,0.00
2013-11-17,52,41,26,52,36,23,99,84,67,30.32,29.82,1,0,3,0.11
2013-11-18,57,53,48,54,47,33,99,80,55,30.11,29.44,2,0,5,0.23
2013-11-19,47,36,28,35,22,15,63,59,53,30.54,29.89,3,1,9,0.21
2013-11-21,40,27,15,21,16,11,87,67,35,30.64,30.37,0,0,0,0.00
2013-11-22,43,36,30,42,34,21,98,95,68,30.35,30.01,5,2,10,0.20
2013-11-23,43,39,36,43,32,-100,99,91,90,30.09,30.02,5,1,20,0.05
2013-11-24,25,24,22,8,3,1,51,40,37,30.35,30.17,4,2,12,0.00
2013-11-25,31,24,19,15,5,-6,63,45,21,30.65,30.45,9,4,17,0.00
2013-11-26,35,27,23,27,19,12,94,73,61,30.58,30.28,8,3,14,0.01
2013-11-27,61,47,34,60,46,33,99,97,97,30.35,29.48,6,2,20,1.49
2013-11-28,34,31,19,28,20,8,79,66,42,30.71,29.95,3,2,10,0.10
2013-11-30,21,17,18,16,-2,-100,82,68,73,30.99,30.62,10,5,22,0.00
2013-12-1,35,29,24,34,26,20,97,87,79,30.50,30.38,4,1,8,0.01
2013-12-2,38,33,29,38,32,28,99,93,85,30.27,30.16,2,0,3,0.06
2013-12-3,38,31,28,37,30,24,99,95,84,30.23,30.17,3,0,10,0.05
2013-12-4,40,29,24,30,26,22,96,88,65,30.47,30.22,4,1,10,0.01
2013-12-5,44,36,24,43,34,22,98,92,82,30.51,30.09,13,4,28,0.03
2013-12-6,49,45,34,49,44,33,99,96,87,30.40,30.12,3,0,7,0.11
2013-12-7,34,25,22,34,10,-100,98,78,77,30.73,30.36,3,0,7,0.10
2013-12-8,28,24,18,22,18,9,95,78,56,30.87,30.75,3,0,8,0.00
2013-12-9,37,34,27,36,33,21,98,97,77,30.78,30.17,1,0,3,0.08
2013-12-10,35,30,24,32,28,15,99,90,65,30.24,30.06,1,0,3,0.01
2013-12-11,31,25,18,20,17,15,89,72,57,30.47,30.27,3,1,7,0.00
2013-12-12,10,9,8,7,5,3,88,86,81,30.32,30.22,8,5,14,0.00
2013-12-13,12,10,10,9,7,4,90,87,76,30.24,30.14,9,5,16,0.00
2013-12-14,8,4,8,-2,-51,-100,63,32,63,30.80,30.62,1,0,5,0.00
2013-12-15,17,17,16,14,14,13,90,87,85,29.99,29.82,2,1,10,0.00
2013-12-16,25,21,17,19,13,8,94,72,54,30.41,30.01,0,0,0,0.00
2013-12-17,16,6,-3,14,3,-6,93,87,82,30.58,30.31,5,1,12,0.00
2013-12-18,24,18,9,20,15,6,93,88,77,30.33,30.18,3,1,8,0.00
2013-12-19,31,26,20,26,23,18,92,87,78,30.35,30.17,6,2,12,0.01
2013-12-20,50,31,27,37,27,24,95,87,60,30.35,30.18,1,0,3,0.16
2013-12-21,55,42,35,47,38,-100,98,91,68,30.21,30.03,7,3,14,0.16
2013-12-22,47,34,31,46,33,31,98,98,95,30.32,30.10,3,0,6,0.13
2013-12-23,34,32,30,34,31,29,99,98,98,30.40,30.27,2,0,3,0.01
2013-12-24,35,30,25,35,25,16,99,80,59,30.48,30.34,1,0,7,0.01
2013-12-25,24,17,10,16,6,0,84,63,50,30.86,30.48,2,0,7,0.01
2013-12-26,29,21,13,28,18,9,95,89,78,30.81,30.38,0,0,1,0.00
2013-12-27,33,24,15,25,20,14,96,84,65,30.55,30.48,2,0,6,0.00
2013-12-28,46,32,22,32,25,-100,92,76,56,30.50,30.25,2,0,10,0.11
2013-12-29,41,35,28,36,31,25,98,87,69,30.30,29.73,3,0,5,1.05
2013-12-30,40,31,15,37,26,7,99,80,55,30.47,29.79,5,1,12,0.02
2013-12-31,22,15,8,14,4,-1,88,64,44,30.47,30.33,1,0,3,0.00
2014-1-1,25,18,12,11,9,6,82,67,49,30.69,30.46,2,0,9,0.00
2014-1-2,17,8,-2,13,4,-5,90,86,79,30.67,30.22,2,0,10,0.00